createdAt,value
2023-04-20T00:00:02.597Z,5.55
2023-04-20T00:02:29.398Z,6.40
2023-04-20T00:04:56.243Z,7.22
2023-04-20T00:07:24.854Z,7.93
2023-04-20T00:09:51.548Z,6.68
2023-04-20T00:12:18.213Z,6.05
2023-04-20T00:14:44.893Z,7.05
2023-04-20T00:17:11.578Z,5.60
2023-04-20T00:19:38.296Z,8.80
2023-04-20T00:22:05.057Z,5.25
2023-04-20T00:24:31.748Z,9.50
2023-04-20T00:26:58.386Z,5.78
2023-04-20T00:29:25.268Z,8.60
2023-04-20T00:31:51.947Z,6.07
2023-04-20T00:34:18.676Z,8.07
2023-04-20T00:36:45.550Z,8.07
2023-04-20T00:39:12.272Z,6.53
2023-04-20T00:41:38.948Z,5.22
2023-04-20T00:44:08.125Z,7.70
2023-04-20T00:46:34.797Z,9.45
2023-04-20T00:49:01.521Z,8.38
2023-04-20T00:51:28.269Z,5.80
2023-04-20T00:53:54.930Z,6.28
2023-04-20T00:56:21.796Z,6.53
2023-04-20T00:58:48.665Z,5.70
2023-04-20T01:01:17.852Z,6.22
2023-04-20T01:03:45.818Z,5.75
2023-04-20T01:06:14.180Z,5.25
2023-04-20T01:08:48.511Z,7.53
2023-04-20T01:11:15.350Z,5.43
2023-04-20T01:13:43.292Z,7.10
2023-04-20T01:16:10.450Z,8.07
2023-04-20T01:18:48.511Z,7.28
2023-04-20T01:21:17.422Z,7.18
2023-04-20T01:23:44.434Z,6.28
2023-04-20T01:26:12.585Z,8.85
2023-04-20T01:28:39.375Z,5.82
2023-04-20T01:31:07.535Z,6.05
2023-04-20T01:33:34.511Z,7.82
2023-04-20T01:36:01.284Z,7.50
2023-04-20T01:38:28.236Z,7.65
2023-04-20T01:40:55.161Z,8.57
2023-04-20T01:43:22.466Z,6.38
2023-04-20T01:45:49.247Z,5.90
2023-04-20T01:48:16.202Z,6.00
2023-04-20T01:50:42.950Z,9.98
2023-04-20T01:53:09.827Z,7.55
2023-04-20T01:55:36.638Z,5.72
2023-04-20T01:58:04.117Z,10.10
2023-04-20T02:00:30.767Z,9.05
2023-04-20T02:02:57.623Z,7.82
2023-04-20T02:05:24.475Z,8.48
2023-04-20T02:07:51.533Z,9.20
2023-04-20T02:10:18.456Z,10.13
2023-04-20T02:12:45.412Z,8.95
2023-04-20T02:15:12.096Z,12.27
2023-04-20T02:17:38.805Z,8.35
2023-04-20T02:20:07.334Z,9.50
2023-04-20T02:22:35.271Z,11.45
2023-04-20T02:25:02.627Z,9.90
2023-04-20T02:27:29.272Z,8.95
2023-04-20T02:29:56.436Z,7.07
2023-04-20T02:32:23.146Z,7.53
2023-04-20T02:34:49.816Z,7.72
2023-04-20T02:37:16.433Z,6.30
2023-04-20T02:39:43.179Z,9.68
2023-04-20T02:42:09.786Z,7.75
2023-04-20T02:44:36.425Z,11.23
2023-04-20T02:47:03.081Z,8.27
2023-04-20T02:49:29.791Z,11.38
2023-04-20T02:51:56.416Z,8.23
2023-04-20T02:54:23.130Z,9.85
2023-04-20T02:56:49.840Z,9.57
2023-04-20T02:59:17.314Z,7.03
2023-04-20T03:01:44.215Z,11.50
2023-04-20T03:04:11.050Z,10.23
2023-04-20T03:06:38.948Z,12.00
2023-04-20T03:09:05.713Z,8.85
2023-04-20T03:11:32.360Z,10.70
2023-04-20T03:13:59.009Z,7.50
2023-04-20T03:16:25.690Z,10.95
2023-04-20T03:18:52.391Z,7.38
2023-04-20T03:21:19.013Z,10.38
2023-04-20T03:23:45.699Z,6.70
2023-04-20T03:26:13.612Z,8.07
2023-04-20T03:28:41.335Z,10.45
2023-04-20T03:31:07.974Z,8.52
2023-04-20T03:33:34.637Z,8.90
2023-04-20T03:36:01.280Z,6.70
2023-04-20T03:38:28.005Z,6.82
2023-04-20T03:40:54.624Z,8.00
2023-04-20T03:43:21.314Z,7.72
2023-04-20T03:45:47.989Z,6.60
2023-04-20T03:48:14.672Z,7.65
2023-04-20T03:50:41.307Z,9.25
2023-04-20T03:53:07.976Z,7.63
2023-04-20T03:55:34.649Z,8.68
2023-04-20T03:58:01.344Z,12.80
2023-04-20T04:00:28.026Z,9.23
2023-04-20T04:02:54.841Z,8.48
2023-04-20T04:05:21.760Z,9.68
2023-04-20T04:07:48.493Z,9.10
2023-04-20T04:10:16.080Z,9.20
2023-04-20T04:12:42.775Z,7.35
2023-04-20T04:15:10.070Z,8.13
2023-04-20T04:17:36.728Z,7.72
2023-04-20T04:20:03.760Z,7.63
2023-04-20T04:22:30.889Z,8.45
2023-04-20T04:24:57.542Z,10.23
2023-04-20T04:27:24.780Z,11.90
2023-04-20T04:29:51.503Z,7.93
2023-04-20T04:32:18.158Z,8.00
2023-04-20T04:34:44.799Z,8.52
2023-04-20T04:37:11.978Z,9.60
2023-04-20T04:39:39.180Z,8.43
2023-04-20T04:42:05.953Z,9.55
2023-04-20T04:44:33.636Z,9.40
2023-04-20T04:47:02.961Z,8.13
2023-04-20T04:49:30.146Z,9.73
2023-04-20T04:51:56.924Z,9.40
2023-04-20T04:54:24.113Z,8.68
2023-04-20T04:56:50.752Z,8.93
2023-04-20T04:59:17.733Z,9.52
2023-04-20T05:01:44.703Z,10.73
2023-04-20T05:04:11.547Z,9.60
2023-04-20T05:06:38.472Z,9.85
2023-04-20T05:09:05.707Z,9.55
2023-04-20T05:11:32.402Z,11.25
2023-04-20T05:13:59.109Z,11.45
2023-04-20T05:16:25.911Z,10.10
2023-04-20T05:18:52.645Z,10.02
2023-04-20T05:21:19.281Z,9.27
2023-04-20T05:23:45.996Z,8.68
2023-04-20T05:26:12.738Z,10.68
2023-04-20T05:28:39.453Z,10.45
2023-04-20T05:31:08.105Z,8.70
2023-04-20T05:33:34.900Z,10.48
2023-04-20T05:36:01.726Z,12.90
2023-04-20T05:38:28.398Z,9.30
2023-04-20T05:40:55.156Z,7.75
2023-04-20T05:43:22.177Z,10.02
2023-04-20T05:45:49.166Z,10.45
2023-04-20T05:48:15.930Z,9.88
2023-04-20T05:50:42.692Z,11.65
2023-04-20T05:53:09.559Z,11.60
2023-04-20T05:55:36.217Z,18.63
2023-04-20T05:58:03.342Z,11.38
2023-04-20T06:00:30.064Z,8.50
2023-04-20T06:02:56.885Z,9.35
2023-04-20T06:05:23.812Z,9.35
2023-04-20T06:07:50.594Z,11.88
2023-04-20T06:10:17.227Z,9.70
2023-04-20T06:12:43.900Z,10.27
2023-04-20T06:15:11.059Z,9.23
2023-04-20T06:17:40.704Z,7.00
2023-04-20T06:20:09.411Z,9.30
2023-04-20T06:22:36.727Z,10.20
2023-04-20T06:25:03.793Z,8.35
2023-04-20T06:27:30.491Z,12.13
2023-04-20T06:29:57.146Z,7.60
2023-04-20T06:32:23.805Z,10.40
2023-04-20T06:34:51.201Z,9.05
2023-04-20T06:37:17.888Z,8.98
2023-04-20T06:39:44.965Z,8.27
2023-04-20T06:42:11.600Z,8.98
2023-04-20T06:44:38.291Z,9.07
2023-04-20T06:47:05.147Z,8.43
2023-04-20T06:49:31.869Z,9.25
2023-04-20T06:51:58.482Z,7.85
2023-04-20T06:54:25.240Z,9.05
2023-04-20T06:56:51.894Z,7.50
2023-04-20T06:59:19.702Z,8.27
2023-04-20T07:01:46.695Z,8.18
2023-04-20T07:04:13.505Z,9.18
2023-04-20T07:06:40.193Z,10.45
2023-04-20T07:09:08.553Z,9.57
2023-04-20T07:11:35.674Z,9.63
2023-04-20T07:14:02.434Z,10.13
2023-04-20T07:16:29.081Z,11.25
2023-04-20T07:18:55.997Z,14.45
2023-04-20T07:21:22.670Z,7.85
2023-04-20T07:23:49.711Z,8.73
2023-04-20T07:26:16.470Z,11.75
2023-04-20T07:28:43.228Z,8.30
2023-04-20T07:31:10.006Z,9.20
2023-04-20T07:33:36.692Z,7.38
2023-04-20T07:36:04.743Z,8.68
2023-04-20T07:38:31.498Z,8.95
2023-04-20T07:40:58.267Z,8.43
2023-04-20T07:43:24.920Z,9.55
2023-04-20T07:45:52.733Z,7.78
2023-04-20T07:48:19.600Z,10.02
2023-04-20T07:50:50.762Z,7.88
2023-04-20T07:53:17.612Z,6.25
2023-04-20T07:55:46.409Z,8.88
2023-04-20T07:58:14.821Z,8.68
2023-04-20T08:00:41.585Z,10.27
2023-04-20T08:03:08.720Z,9.73
2023-04-20T08:05:40.927Z,9.75
2023-04-20T08:08:07.828Z,8.98
2023-04-20T08:10:35.163Z,9.50
2023-04-20T08:13:02.501Z,7.95
2023-04-20T08:15:29.681Z,6.70
2023-04-20T08:17:56.762Z,10.60
2023-04-20T08:20:23.510Z,8.82
2023-04-20T08:22:51.125Z,6.13
2023-04-20T08:25:18.205Z,9.43
2023-04-20T08:27:45.390Z,7.68
2023-04-20T08:30:12.814Z,8.10
2023-04-20T08:32:41.201Z,9.05
2023-04-20T08:35:09.389Z,8.48
2023-04-20T08:37:37.683Z,10.18
2023-04-20T08:40:05.793Z,8.60
2023-04-20T08:42:32.532Z,8.95
2023-04-20T08:44:59.607Z,9.80
2023-04-20T08:47:26.411Z,9.45
2023-04-20T08:49:53.673Z,8.65
2023-04-20T08:52:20.474Z,10.60
2023-04-20T08:54:56.024Z,9.57
2023-04-20T08:57:25.165Z,10.57
2023-04-20T08:59:51.998Z,10.10
2023-04-20T09:02:18.711Z,8.68
2023-04-20T09:04:49.254Z,8.85
2023-04-20T09:07:21.015Z,7.90
2023-04-20T09:10:00.776Z,9.52
2023-04-20T09:12:28.166Z,10.02
2023-04-20T09:14:55.940Z,8.57
2023-04-20T09:17:33.546Z,7.47
2023-04-20T09:20:00.298Z,9.73
2023-04-20T09:22:34.792Z,9.77
2023-04-20T09:25:12.210Z,9.75
2023-04-20T09:27:38.898Z,9.07
2023-04-20T09:30:06.776Z,9.43
2023-04-20T09:32:33.962Z,7.13
2023-04-20T09:35:00.583Z,7.20
2023-04-20T09:37:27.279Z,7.03
2023-04-20T09:39:58.045Z,10.82
2023-04-20T09:42:24.685Z,6.32
2023-04-20T09:44:51.382Z,7.47
2023-04-20T09:47:20.741Z,8.65
2023-04-20T09:49:50.322Z,8.98
2023-04-20T09:52:21.151Z,7.65
2023-04-20T09:54:47.847Z,10.00
2023-04-20T09:57:14.852Z,6.85
2023-04-20T09:59:46.926Z,8.93
2023-04-20T10:02:13.935Z,10.18
2023-04-20T10:04:56.961Z,6.50
2023-04-20T10:07:27.796Z,10.90
2023-04-20T10:10:05.263Z,8.57
2023-04-20T10:12:32.062Z,7.05
2023-04-20T10:15:00.858Z,7.22
2023-04-20T10:17:31.993Z,6.53
2023-04-20T10:19:59.097Z,8.75
2023-04-20T10:22:32.734Z,10.98
2023-04-20T10:25:00.917Z,6.93
2023-04-20T10:27:28.024Z,7.97
2023-04-20T10:29:54.687Z,7.05
2023-04-20T10:32:28.586Z,8.35
2023-04-20T10:35:02.570Z,6.65
2023-04-20T10:37:33.404Z,10.52
2023-04-20T10:40:00.678Z,8.57
2023-04-20T10:42:29.776Z,8.70
2023-04-20T10:44:56.511Z,6.82
2023-04-20T10:47:31.616Z,7.35
2023-04-20T10:50:11.496Z,7.55
2023-04-20T10:52:40.583Z,8.98
2023-04-20T10:55:18.193Z,7.15
2023-04-20T10:57:45.680Z,5.07
2023-04-20T11:00:20.540Z,7.82
2023-04-20T11:02:51.723Z,6.80
2023-04-20T11:05:22.355Z,6.32
2023-04-20T11:07:53.649Z,8.93
2023-04-20T11:10:22.103Z,8.82
2023-04-20T11:12:48.915Z,9.23
2023-04-20T11:15:16.439Z,13.80
2023-04-20T11:17:43.271Z,8.05
2023-04-20T11:20:15.198Z,11.65
2023-04-20T11:22:42.531Z,13.15
2023-04-20T11:25:10.940Z,9.15
2023-04-20T11:27:38.750Z,8.82
2023-04-20T11:30:06.380Z,9.70
2023-04-20T11:32:33.780Z,11.38
2023-04-20T11:35:08.173Z,10.23
2023-04-20T11:37:49.103Z,8.25
2023-04-20T11:40:15.886Z,8.55
2023-04-20T11:42:42.958Z,10.02
2023-04-20T11:45:11.752Z,8.75
2023-04-20T11:47:41.284Z,9.10
2023-04-20T11:50:09.353Z,7.30
2023-04-20T11:52:36.136Z,7.05
2023-04-20T11:55:02.953Z,7.07
2023-04-20T11:57:29.633Z,7.57
2023-04-20T11:59:56.448Z,10.90
2023-04-20T12:02:23.626Z,7.40
2023-04-20T12:04:50.721Z,9.27
2023-04-20T12:07:17.540Z,8.38
2023-04-20T12:09:44.557Z,8.32
2023-04-20T12:12:11.289Z,8.60
2023-04-20T12:14:38.075Z,8.82
2023-04-20T12:17:05.845Z,8.55
2023-04-20T12:19:32.764Z,8.98
2023-04-20T12:21:59.458Z,8.15
2023-04-20T12:24:26.272Z,8.38
2023-04-20T12:26:54.677Z,9.48
2023-04-20T12:29:21.433Z,8.27
2023-04-20T12:31:48.136Z,7.50
2023-04-20T12:34:14.777Z,8.63
2023-04-20T12:36:41.523Z,7.88
2023-04-20T12:39:08.381Z,8.85
2023-04-20T12:41:37.788Z,8.23
2023-04-20T12:44:08.126Z,9.85
2023-04-20T12:46:38.268Z,7.75
2023-04-20T12:49:05.108Z,8.07
2023-04-20T12:51:32.419Z,8.23
2023-04-20T12:53:59.091Z,8.35
2023-04-20T12:56:31.852Z,9.23
2023-04-20T12:58:58.535Z,7.78
2023-04-20T13:01:25.586Z,7.38
2023-04-20T13:03:54.841Z,8.90
2023-04-20T13:06:22.164Z,10.77
2023-04-20T13:08:50.704Z,6.82
2023-04-20T13:11:18.216Z,5.75
2023-04-20T13:13:45.012Z,6.85
2023-04-20T13:16:11.963Z,8.70
2023-04-20T13:18:38.933Z,6.75
2023-04-20T13:21:05.820Z,6.80
2023-04-20T13:23:32.568Z,8.07
2023-04-20T13:26:01.517Z,6.22
2023-04-20T13:28:28.249Z,8.18
2023-04-20T13:30:57.550Z,7.20
2023-04-20T13:33:24.720Z,8.32
2023-04-20T13:35:51.553Z,6.80
2023-04-20T13:38:18.456Z,9.05
2023-04-20T13:40:46.341Z,6.22
2023-04-20T13:43:13.273Z,6.45
2023-04-20T13:45:40.341Z,9.88
2023-04-20T13:48:07.480Z,7.60
2023-04-20T13:50:34.235Z,6.93
2023-04-20T13:53:03.276Z,8.18
2023-04-20T13:55:30.613Z,6.85
2023-04-20T13:57:57.375Z,6.63
2023-04-20T14:00:26.173Z,6.75
2023-04-20T14:03:02.985Z,8.27
2023-04-20T14:05:31.616Z,5.68
2023-04-20T14:08:01.755Z,5.95
2023-04-20T14:10:28.760Z,5.88
2023-04-20T14:12:55.635Z,7.60
2023-04-20T14:15:22.613Z,7.20
2023-04-20T14:17:51.743Z,7.47
2023-04-20T14:20:19.150Z,8.40
2023-04-20T14:22:45.899Z,7.03
2023-04-20T14:25:13.771Z,5.82
2023-04-20T14:27:40.608Z,5.38
2023-04-20T14:30:08.420Z,5.57
2023-04-20T14:32:36.179Z,5.20
2023-04-20T14:35:05.654Z,4.55
2023-04-20T14:37:33.886Z,7.38
2023-04-20T14:40:00.613Z,6.07
2023-04-20T14:42:34.872Z,5.45
2023-04-20T14:45:01.711Z,5.40
2023-04-20T14:47:28.866Z,6.50
2023-04-20T14:49:55.634Z,6.07
2023-04-20T14:52:22.324Z,8.40
2023-04-20T14:54:49.078Z,6.05
2023-04-20T14:57:16.049Z,5.82
2023-04-20T14:59:43.072Z,7.25
2023-04-20T15:02:09.885Z,5.20
2023-04-20T15:04:36.946Z,6.03
2023-04-20T15:07:04.281Z,6.25
2023-04-20T15:09:32.692Z,6.05
2023-04-20T15:11:59.385Z,6.60
2023-04-20T15:14:26.080Z,7.20
2023-04-20T15:16:52.860Z,6.35
2023-04-20T15:19:20.442Z,6.40
2023-04-20T15:21:47.202Z,6.15
2023-04-20T15:24:14.093Z,8.55
2023-04-20T15:26:41.524Z,8.10
2023-04-20T15:29:08.167Z,7.88
2023-04-20T15:31:34.842Z,7.57
2023-04-20T15:34:01.625Z,8.52
2023-04-20T15:36:28.701Z,6.82
2023-04-20T15:38:57.579Z,8.45
2023-04-20T15:41:24.698Z,8.52
2023-04-20T15:43:51.432Z,7.43
2023-04-20T15:46:18.971Z,8.40
2023-04-20T15:48:45.715Z,9.63
2023-04-20T15:51:12.704Z,8.35
2023-04-20T15:53:39.447Z,8.63
2023-04-20T15:56:06.442Z,10.40
2023-04-20T15:58:33.128Z,9.15
2023-04-20T16:01:00.402Z,10.60
2023-04-20T16:03:27.485Z,9.93
2023-04-20T16:05:54.336Z,11.18
2023-04-20T16:08:21.280Z,9.02
2023-04-20T16:10:48.009Z,8.65
2023-04-20T16:13:14.769Z,9.07
2023-04-20T16:15:41.611Z,10.55
2023-04-20T16:18:08.655Z,9.95
2023-04-20T16:20:35.364Z,11.52
2023-04-20T16:23:02.206Z,13.35
2023-04-20T16:25:29.037Z,11.18
2023-04-20T16:27:55.897Z,11.18
2023-04-20T16:30:22.792Z,10.68
2023-04-20T16:32:50.028Z,11.55
2023-04-20T16:35:18.510Z,11.52
2023-04-20T16:37:45.808Z,10.43
2023-04-20T16:40:12.595Z,10.30
2023-04-20T16:42:39.357Z,12.15
2023-04-20T16:45:07.070Z,11.77
2023-04-20T16:47:33.796Z,12.43
2023-04-20T16:50:00.470Z,13.45
2023-04-20T16:52:27.116Z,12.52
2023-04-20T16:54:54.735Z,11.60
2023-04-20T16:57:21.955Z,12.75
2023-04-20T16:59:52.148Z,11.18
2023-04-20T17:02:19.114Z,13.40
2023-04-20T17:04:45.845Z,14.48
2023-04-20T17:07:13.801Z,16.85
2023-04-20T17:09:40.542Z,16.50
2023-04-20T17:12:08.008Z,15.73
2023-04-20T17:14:35.526Z,16.08
2023-04-20T17:17:02.469Z,18.15
2023-04-20T17:19:30.801Z,13.90
2023-04-20T17:21:59.365Z,14.30
2023-04-20T17:24:26.000Z,14.50
2023-04-20T17:26:53.230Z,15.40
2023-04-20T17:29:19.873Z,15.30
2023-04-20T17:31:46.843Z,15.23
2023-04-20T17:34:13.502Z,13.63
2023-04-20T17:36:40.238Z,15.05
2023-04-20T17:39:07.098Z,17.30
2023-04-20T17:41:35.802Z,17.90
2023-04-20T17:44:02.418Z,16.38
2023-04-20T17:46:29.172Z,14.90
2023-04-20T17:48:56.044Z,17.38
2023-04-20T17:51:23.027Z,17.15
2023-04-20T17:53:49.772Z,28.88
2023-04-20T17:56:16.591Z,17.58
2023-04-20T17:58:43.388Z,16.30
2023-04-20T18:01:10.208Z,17.63
2023-04-20T18:03:37.091Z,16.02
2023-04-20T18:06:04.193Z,14.10
2023-04-20T18:08:30.916Z,15.50
2023-04-20T18:10:57.816Z,14.88
2023-04-20T18:13:24.604Z,15.57
2023-04-20T18:15:51.334Z,15.57
2023-04-20T18:18:21.449Z,14.57
2023-04-20T18:20:48.964Z,16.02
2023-04-20T18:23:15.748Z,16.42
2023-04-20T18:25:42.866Z,17.75
2023-04-20T18:28:10.149Z,18.50
2023-04-20T18:30:36.879Z,15.23
2023-04-20T18:33:03.781Z,16.42
2023-04-20T18:35:30.531Z,16.60
2023-04-20T18:37:57.186Z,16.50
2023-04-20T18:40:23.876Z,17.00
2023-04-20T18:42:50.527Z,19.45
2023-04-20T18:45:17.244Z,18.80
2023-04-20T18:47:44.128Z,20.55
2023-04-20T18:50:11.862Z,19.58
2023-04-20T18:52:38.767Z,22.75
2023-04-20T18:55:06.028Z,23.58
2023-04-20T18:57:32.816Z,19.95
2023-04-20T18:59:59.685Z,21.42
2023-04-20T19:02:26.655Z,19.70
2023-04-20T19:04:53.513Z,19.40
2023-04-20T19:07:20.484Z,23.58
2023-04-20T19:09:47.286Z,21.42
2023-04-20T19:12:14.014Z,18.50
2023-04-20T19:14:40.690Z,23.30
2023-04-20T19:17:07.625Z,21.48
2023-04-20T19:19:34.516Z,21.80
2023-04-20T19:22:01.827Z,18.15
2023-04-20T19:24:28.516Z,17.98
2023-04-20T19:26:55.241Z,19.88
2023-04-20T19:29:22.036Z,22.52
2023-04-20T19:31:48.946Z,21.85
2023-04-20T19:34:16.400Z,25.15
2023-04-20T19:36:43.391Z,24.25
2023-04-20T19:39:10.145Z,22.88
2023-04-20T19:41:36.964Z,22.92
2023-04-20T19:44:06.331Z,21.60
2023-04-20T19:46:33.941Z,23.00
2023-04-20T19:49:01.170Z,22.38
2023-04-20T19:51:28.024Z,22.58
2023-04-20T19:53:54.728Z,22.13
2023-04-20T19:56:21.436Z,23.83
2023-04-20T19:58:48.244Z,24.70
2023-04-20T20:01:15.111Z,22.58
2023-04-20T20:03:43.094Z,22.02
2023-04-20T20:06:10.021Z,23.02
2023-04-20T20:08:37.004Z,21.52
2023-04-20T20:11:04.137Z,24.58
2023-04-20T20:13:31.104Z,22.42
2023-04-20T20:15:59.120Z,23.02
2023-04-20T20:18:26.596Z,21.00
2023-04-20T20:20:53.317Z,21.30
2023-04-20T20:23:20.053Z,23.13
2023-04-20T20:25:46.850Z,24.08
2023-04-20T20:28:13.696Z,21.77
2023-04-20T20:30:45.084Z,25.60
2023-04-20T20:33:12.451Z,23.15
2023-04-20T20:35:40.372Z,21.60
2023-04-20T20:38:11.454Z,23.48
2023-04-20T20:40:39.852Z,22.77
2023-04-20T20:43:06.827Z,23.15
2023-04-20T20:45:33.809Z,26.63
2023-04-20T20:48:01.050Z,22.80
2023-04-20T20:50:28.056Z,28.45
2023-04-20T20:52:55.685Z,26.27
2023-04-20T20:55:22.641Z,30.90
2023-04-20T20:57:49.336Z,25.67
2023-04-20T21:00:16.305Z,24.05
2023-04-20T21:02:43.266Z,24.92
2023-04-20T21:05:10.339Z,27.35
2023-04-20T21:07:37.007Z,27.20
2023-04-20T21:10:03.988Z,28.58
2023-04-20T21:12:33.168Z,26.38
2023-04-20T21:14:59.845Z,26.40
2023-04-20T21:17:27.048Z,28.45
2023-04-20T21:19:53.748Z,28.35
2023-04-20T21:22:22.590Z,27.55
2023-04-20T21:24:49.339Z,27.40
2023-04-20T21:27:16.098Z,30.15
2023-04-20T21:29:42.804Z,28.42
2023-04-20T21:32:12.894Z,31.85
2023-04-20T21:34:39.566Z,29.40
2023-04-20T21:37:06.284Z,27.98
2023-04-20T21:39:33.133Z,30.25
2023-04-20T21:42:00.282Z,28.48
2023-04-20T21:44:27.426Z,30.67
2023-04-20T21:46:54.708Z,28.25
2023-04-20T21:49:21.461Z,28.58
2023-04-20T21:51:48.176Z,27.20
2023-04-20T21:54:15.295Z,30.02
2023-04-20T21:56:41.955Z,27.40
2023-04-20T21:59:08.691Z,26.90
2023-04-20T22:01:35.448Z,29.80
2023-04-20T22:04:02.240Z,25.90
2023-04-20T22:06:29.038Z,26.45
2023-04-20T22:08:56.552Z,26.40
2023-04-20T22:11:23.267Z,28.65
2023-04-20T22:13:50.339Z,26.05
2023-04-20T22:16:18.124Z,28.52
2023-04-20T22:18:44.784Z,26.77
2023-04-20T22:21:11.466Z,33.58
2023-04-20T22:23:38.114Z,27.80
2023-04-20T22:26:05.076Z,27.10
2023-04-20T22:28:31.693Z,28.73
2023-04-20T22:30:58.497Z,27.33
2023-04-20T22:33:25.285Z,28.45
2023-04-20T22:35:52.758Z,27.02
2023-04-20T22:38:19.538Z,27.33
2023-04-20T22:40:46.389Z,26.85
2023-04-20T22:43:13.119Z,25.85
2023-04-20T22:45:39.929Z,29.02
2023-04-20T22:50:34.984Z,28.65
2023-04-20T22:53:01.689Z,30.60
2023-04-20T22:55:28.361Z,31.58
2023-04-20T22:57:54.994Z,32.03
2023-04-20T23:00:21.687Z,32.88
2023-04-20T23:02:48.550Z,33.75
2023-04-20T23:05:20.459Z,33.85
2023-04-20T23:07:47.333Z,30.50
2023-04-20T23:10:17.113Z,28.70
2023-04-20T23:12:44.668Z,29.48
2023-04-20T23:15:12.116Z,27.98
2023-04-20T23:17:39.033Z,26.73
2023-04-20T23:20:13.924Z,26.75
2023-04-20T23:22:40.830Z,29.40
2023-04-20T23:25:08.165Z,30.40
2023-04-20T23:27:34.769Z,28.10
2023-04-20T23:30:01.493Z,29.55
2023-04-20T23:32:28.216Z,32.95
2023-04-20T23:34:54.954Z,33.10
2023-04-20T23:37:21.599Z,33.17
2023-04-20T23:39:48.267Z,28.27
2023-04-20T23:42:14.900Z,31.52
2023-04-20T23:44:41.581Z,29.90
2023-04-20T23:47:08.243Z,30.40
2023-04-20T23:49:34.927Z,29.58
2023-04-20T23:52:01.549Z,31.35
2023-04-20T23:54:29.102Z,32.22
2023-04-20T23:56:56.004Z,34.13
2023-04-20T23:59:22.788Z,34.45
